Basic Brave — 3EVG4 — position and weather

sailwx.info

Track history (hours):
 
Tides and Currents Weather Stations Pressure Air Temp Water Temp Dewpoint Dewpoint Depression Visibility Wind Speed Wind Dir Waves Ship Positions

Basic Brave

Last reported at 2018-May-25 11:17 UTC. Time now 2018-Jun-24 07:13 UTC.
Position N 01°28' E 103°11'.
Warning: this ship's position is 29 days out of date.

Length 180 m; draft 8.7 m.

Type: Cargo ship. MMSI: 373701000.

Date/timePositionNaut miles runAvg speedWind from/ knotsBaromVisibWave heightAir tempDewpointWater temp
2018-May-25 11:17N 01°28' E 103°11'310.5
2018-May-25 10:59N 01°26' E 103°13'510.3
2018-May-25 10:30N 01°22' E 103°17'611.1
2018-May-25 09:57N 01°18' E 103°21'511.5
2018-May-25 09:30N 01°15' E 103°25'611.5
2018-May-25 09:00N 01°13' E 103°30'611.8
2018-May-25 08:30N 01°12' E 103°36'611.5
2018-May-25 08:00N 01°10' E 103°42'5 9.9
2018-May-25 07:30N 01°10' E 103°47'5 9.8
2018-May-25 07:00N 01°12' E 103°51'510.1
2018-May-25 06:30N 01°14' E 103°55'5 9.1
2018-May-25 06:00N 01°16' E 103°60'2 3.9
2018-May-25 05:26N 01°18' E 104°01'0 0.0
2018-May-25 04:56N 01°18' E 104°01'0 0.0
2018-May-25 04:27N 01°18' E 104°01'0 0.0
2018-May-25 03:47N 01°18' E 104°01'0 0.0
2018-May-25 03:30N 01°18' E 104°01'0 0.0
2018-May-25 02:57N 01°18' E 104°01'0 0.1
2018-May-25 02:27N 01°18' E 104°00'0 0.1
2018-May-25 01:56N 01°18' E 104°00'0 0.1
2018-May-25 01:20N 01°18' E 104°00'0 0.2
2018-May-25 01:00N 01°18' E 104°00'0 0.1
2018-May-25 00:08N 01°18' E 104°00'0 0.0
2018-May-24 23:56N 01°18' E 104°00'0 0.1
2018-May-24 23:30N 01°18' E 104°00'0 0.1
2018-May-24 22:57N 01°18' E 104°00'0 0.0
2018-May-24 22:27N 01°18' E 104°00'0 0.0
2018-May-24 21:59N 01°18' E 104°00'0 0.0
2018-May-24 21:18N 01°18' E 104°00'0 0.0
2018-May-24 20:54N 01°18' E 104°00'0 0.0
2018-May-24 20:14N 01°18' E 104°00'0 0.0
2018-May-24 19:45N 01°18' E 104°00'0 0.0
2018-May-24 19:24N 01°18' E 104°00'0 0.1
2018-May-24 18:53N 01°18' E 104°00'1 1.9
2018-May-24 18:30N 01°17' E 104°00'2 3.0
2018-May-24 18:00N 01°16' E 103°60'2 3.7
2018-May-24 17:28N 01°16' E 104°01'1 2.5
2018-May-24 17:00N 01°16' E 104°03'2 3.7
2018-May-24 16:26N 01°16' E 104°05'1 3.3
2018-May-24 16:00N 01°17' E 104°06'2 3.8
2018-May-24 15:30N 01°17' E 104°08'2 3.5
2018-May-24 15:00N 01°17' E 104°10'4 8.0
2018-May-24 14:28N 01°18' E 104°14'4 9.0
2018-May-24 14:00N 01°18' E 104°18'4 8.9
2018-May-24 13:30N 01°21' E 104°22'  
Track history (hours):
 
Tides and Currents Weather Stations Pressure Air Temp Water Temp Dewpoint Dewpoint Depression Visibility Wind Speed Wind Dir Waves Ship Positions

Basic Brave

Last reported at 2018-May-25 11:17 UTC. Time now 2018-Jun-24 07:13 UTC.
Position N 01°28' E 103°11'.
Warning: this ship's position is 29 days out of date.

Length 180 m; draft 8.7 m.

Type: Cargo ship. MMSI: 373701000.

Date/timePositionNaut miles runAvg speedWind from/ knotsBaromVisibWave heightAir tempDewpointWater temp
2018-May-25 11:17N 01°28' E 103°11'310.5
2018-May-25 10:59N 01°26' E 103°13'510.3
2018-May-25 10:30N 01°22' E 103°17'611.1
2018-May-25 09:57N 01°18' E 103°21'511.5
2018-May-25 09:30N 01°15' E 103°25'611.5
2018-May-25 09:00N 01°13' E 103°30'611.8
2018-May-25 08:30N 01°12' E 103°36'611.5
2018-May-25 08:00N 01°10' E 103°42'5 9.9
2018-May-25 07:30N 01°10' E 103°47'5 9.8
2018-May-25 07:00N 01°12' E 103°51'510.1
2018-May-25 06:30N 01°14' E 103°55'5 9.1
2018-May-25 06:00N 01°16' E 103°60'2 3.9
2018-May-25 05:26N 01°18' E 104°01'0 0.0
2018-May-25 04:56N 01°18' E 104°01'0 0.0
2018-May-25 04:27N 01°18' E 104°01'0 0.0
2018-May-25 03:47N 01°18' E 104°01'0 0.0
2018-May-25 03:30N 01°18' E 104°01'0 0.0
2018-May-25 02:57N 01°18' E 104°01'0 0.1
2018-May-25 02:27N 01°18' E 104°00'0 0.1
2018-May-25 01:56N 01°18' E 104°00'0 0.1
2018-May-25 01:20N 01°18' E 104°00'0 0.2
2018-May-25 01:00N 01°18' E 104°00'0 0.1
2018-May-25 00:08N 01°18' E 104°00'0 0.0
2018-May-24 23:56N 01°18' E 104°00'0 0.1
2018-May-24 23:30N 01°18' E 104°00'0 0.1
2018-May-24 22:57N 01°18' E 104°00'0 0.0
2018-May-24 22:27N 01°18' E 104°00'0 0.0
2018-May-24 21:59N 01°18' E 104°00'0 0.0
2018-May-24 21:18N 01°18' E 104°00'0 0.0
2018-May-24 20:54N 01°18' E 104°00'0 0.0
2018-May-24 20:14N 01°18' E 104°00'0 0.0
2018-May-24 19:45N 01°18' E 104°00'0 0.0
2018-May-24 19:24N 01°18' E 104°00'0 0.1
2018-May-24 18:53N 01°18' E 104°00'1 1.9
2018-May-24 18:30N 01°17' E 104°00'2 3.0
2018-May-24 18:00N 01°16' E 103°60'2 3.7
2018-May-24 17:28N 01°16' E 104°01'1 2.5
2018-May-24 17:00N 01°16' E 104°03'2 3.7
2018-May-24 16:26N 01°16' E 104°05'1 3.3
2018-May-24 16:00N 01°17' E 104°06'2 3.8
2018-May-24 15:30N 01°17' E 104°08'2 3.5
2018-May-24 15:00N 01°17' E 104°10'4 8.0
2018-May-24 14:28N 01°18' E 104°14'4 9.0
2018-May-24 14:00N 01°18' E 104°18'4 8.9
2018-May-24 13:30N 01°21' E 104°22'  

Dump ship's entire track history